Time;durP1;ratioP1;P1;durP2;ratioP2;P2;SDS_P1;SDS_P2;PMS_P1;PMS_P2;Temp;Humidity;BMP_temperature;BMP_pressure;BME280_temperature;BME280_humidity;BME280_pressure;Samples;Min_cycle;Max_cycle;Signal;HPM_P1;HPM_P2
2023/11/11 00:00:49;;;;;;;1.00;0.70;;;18.20;71.60;;;;;;5055889;28;20440;-88
2023/11/11 00:03:17;;;;;;;1.63;1.00;;;18.20;71.60;;;;;;5055584;28;20205;-88
2023/11/11 00:05:44;;;;;;;1.00;0.70;;;18.20;71.60;;;;;;5055748;28;20490;-88
2023/11/11 00:08:11;;;;;;;1.10;0.80;;;18.20;71.60;;;;;;5055776;28;20438;-88
2023/11/11 00:10:38;;;;;;;1.10;0.80;;;18.20;71.60;;;;;;5055772;28;20433;-88
2023/11/11 00:13:05;;;;;;;1.10;0.87;;;18.20;71.50;;;;;;5055607;28;20473;-88
2023/11/11 00:15:33;;;;;;;1.10;0.83;;;18.20;71.50;;;;;;5055702;28;20485;-89
2023/11/11 00:18:00;;;;;;;1.10;0.80;;;18.20;71.50;;;;;;5055543;28;20512;-89
2023/11/11 00:20:28;;;;;;;1.10;0.80;;;18.20;71.50;;;;;;5055623;28;20473;-88
2023/11/11 00:22:55;;;;;;;1.10;0.90;;;18.20;71.60;;;;;;5055501;28;20618;-89
2023/11/11 00:25:23;;;;;;;1.00;0.70;;;18.20;71.60;;;;;;5055505;28;20530;-88
2023/11/11 00:27:50;;;;;;;1.20;0.80;;;18.20;71.60;;;;;;5055325;28;20451;-88
2023/11/11 00:30:19;;;;;;;1.20;0.90;;;18.20;71.60;;;;;;5055484;28;20438;-88
2023/11/11 00:32:50;;;;;;;1.50;0.90;;;18.20;71.60;;;;;;5055331;28;20467;-89
2023/11/11 00:35:18;;;;;;;1.20;0.80;;;18.20;71.60;;;;;;5055053;28;20457;-88
2023/11/11 00:37:47;;;;;;;1.00;0.77;;;18.20;71.60;;;;;;5055291;28;20451;-88
2023/11/11 00:40:14;;;;;;;1.40;0.90;;;18.20;71.60;;;;;;5055189;28;20505;-88
2023/11/11 00:42:41;;;;;;;1.10;0.80;;;18.20;71.60;;;;;;5055166;28;20438;-93
2023/11/11 00:45:09;;;;;;;1.20;0.80;;;18.10;71.50;;;;;;5055124;28;20477;-88
2023/11/11 00:47:36;;;;;;;1.00;0.70;;;18.20;71.60;;;;;;5054968;28;21003;-88
2023/11/11 00:50:05;;;;;;;1.00;0.73;;;18.10;71.50;;;;;;5055487;28;20467;-88
2023/11/11 00:52:33;;;;;;;1.10;0.80;;;18.10;71.50;;;;;;5055278;28;20456;-89
2023/11/11 00:55:02;;;;;;;1.30;1.13;;;18.10;71.60;;;;;;5054955;28;20443;-88
2023/11/11 00:57:28;;;;;;;1.30;0.97;;;18.10;71.50;;;;;;5054850;28;20945;-89
2023/11/11 00:59:55;;;;;;;1.30;1.10;;;18.10;71.50;;;;;;5054751;28;20523;-88
2023/11/11 01:02:23;;;;;;;1.00;0.73;;;18.10;71.50;;;;;;5054818;28;20533;-88
2023/11/11 01:04:50;;;;;;;1.03;0.80;;;18.10;71.50;;;;;;5054657;28;20462;-88
2023/11/11 01:07:17;;;;;;;1.10;0.90;;;18.10;71.50;;;;;;5054645;28;20448;-88
2023/11/11 01:09:44;;;;;;;1.10;0.83;;;18.10;71.50;;;;;;5054600;28;20433;-88
2023/11/11 01:12:12;;;;;;;1.00;0.70;;;18.10;71.50;;;;;;5054510;28;20467;-88
2023/11/11 01:14:39;;;;;;;1.30;0.87;;;18.10;71.50;;;;;;5054056;28;20555;-88
2023/11/11 01:17:07;;;;;;;1.00;0.80;;;18.10;71.50;;;;;;5054390;28;20560;-88
2023/11/11 01:19:34;;;;;;;1.20;0.80;;;18.10;71.60;;;;;;5054702;28;20784;-88
2023/11/11 01:22:01;;;;;;;1.20;1.00;;;18.10;71.50;;;;;;5054352;28;20506;-89
2023/11/11 01:24:28;;;;;;;1.10;0.83;;;18.10;71.50;;;;;;5054603;28;20465;-88
2023/11/11 01:26:55;;;;;;;1.10;0.80;;;18.10;71.50;;;;;;5054408;28;20440;-89
2023/11/11 01:29:23;;;;;;;1.00;0.80;;;18.10;71.50;;;;;;5054242;28;20942;-88
2023/11/11 01:31:50;;;;;;;1.00;0.77;;;18.10;71.50;;;;;;5054167;28;20468;-94
2023/11/11 01:34:17;;;;;;;1.30;0.90;;;18.10;71.50;;;;;;5054116;28;20505;-88
2023/11/11 01:36:44;;;;;;;1.00;0.70;;;18.10;71.50;;;;;;5053900;28;20487;-88
2023/11/11 01:39:11;;;;;;;1.20;0.97;;;18.10;71.50;;;;;;5053942;28;20765;-89
2023/11/11 01:41:38;;;;;;;1.00;0.83;;;18.10;71.50;;;;;;5053993;28;20528;-93
2023/11/11 01:44:05;;;;;;;1.23;0.90;;;18.10;71.50;;;;;;5054066;28;20533;-89
2023/11/11 01:46:33;;;;;;;1.17;0.80;;;18.10;71.50;;;;;;5053951;28;20435;-88
2023/11/11 01:49:01;;;;;;;1.30;1.00;;;18.10;72.30;;;;;;5053947;28;20457;-88
2023/11/11 01:51:29;;;;;;;1.10;0.90;;;18.10;71.50;;;;;;5053798;28;20971;-89
2023/11/11 01:53:57;;;;;;;1.10;0.80;;;18.10;71.50;;;;;;5053804;28;20524;-88
2023/11/11 01:56:25;;;;;;;1.10;0.80;;;18.10;71.50;;;;;;5053867;28;20525;-93
2023/11/11 01:58:52;;;;;;;1.10;0.87;;;18.10;71.50;;;;;;5053776;28;20448;-93
2023/11/11 02:01:19;;;;;;;1.53;0.90;;;18.10;71.50;;;;;;5053730;28;20446;-88
2023/11/11 02:03:48;;;;;;;1.20;0.80;;;18.10;72.40;;;;;;5053766;28;20527;-88
2023/11/11 02:06:15;;;;;;;1.10;0.93;;;18.10;71.50;;;;;;5053545;28;20863;-93
2023/11/11 02:08:42;;;;;;;1.30;1.00;;;18.10;71.50;;;;;;5053822;28;20533;-88
2023/11/11 02:11:10;;;;;;;1.27;0.90;;;18.10;71.50;;;;;;5053469;28;20565;-88
2023/11/11 02:13:37;;;;;;;1.30;0.90;;;18.10;72.00;;;;;;5053988;28;20472;-93
2023/11/11 02:16:05;;;;;;;1.40;1.20;;;18.10;71.50;;;;;;5053430;28;20505;-88
2023/11/11 02:18:32;;;;;;;1.43;0.80;;;18.10;71.60;;;;;;5053471;28;20449;-88
2023/11/11 02:21:01;;;;;;;1.13;0.97;;;18.10;71.50;;;;;;5053420;28;20495;-90
2023/11/11 02:23:33;;;;;;;1.20;1.00;;;18.10;71.50;;;;;;5053703;28;20859;-88
2023/11/11 02:26:00;;;;;;;1.10;0.90;;;18.10;71.50;;;;;;5053343;28;20440;-88
2023/11/11 02:28:27;;;;;;;1.10;0.80;;;18.10;71.50;;;;;;5053396;28;20437;-88
2023/11/11 02:30:54;;;;;;;1.43;0.83;;;18.10;71.50;;;;;;5053332;28;20434;-88
2023/11/11 02:33:21;;;;;;;1.40;1.20;;;18.10;71.50;;;;;;5053193;28;20437;-88
2023/11/11 02:35:48;;;;;;;1.30;1.20;;;18.10;71.50;;;;;;5053087;28;20545;-89
2023/11/11 02:38:15;;;;;;;1.33;1.23;;;18.10;71.60;;;;;;5052986;28;20529;-88
2023/11/11 02:40:43;;;;;;;1.13;1.00;;;18.10;71.50;;;;;;5053085;28;20421;-88
2023/11/11 02:43:11;;;;;;;2.20;1.10;;;18.10;71.60;;;;;;5053397;28;20461;-93
2023/11/11 02:45:38;;;;;;;1.20;1.07;;;18.10;71.60;;;;;;5053161;28;20437;-88
2023/11/11 02:48:06;;;;;;;1.20;0.97;;;18.00;71.50;;;;;;5053061;28;20442;-89
2023/11/11 02:50:33;;;;;;;1.27;1.07;;;18.00;71.50;;;;;;5053076;28;20940;-88
2023/11/11 02:53:00;;;;;;;1.20;1.00;;;18.10;71.60;;;;;;5053142;28;20517;-89
2023/11/11 02:55:27;;;;;;;1.67;1.33;;;18.00;71.40;;;;;;5053192;28;20517;-88
2023/11/11 02:57:55;;;;;;;1.10;0.93;;;18.00;71.50;;;;;;5052642;28;20585;-93
2023/11/11 03:00:22;;;;;;;1.20;1.10;;;18.00;71.50;;;;;;5052970;28;20529;-88
2023/11/11 03:02:49;;;;;;;1.20;1.10;;;18.10;71.60;;;;;;5052692;28;20528;-89
2023/11/11 03:05:16;;;;;;;1.27;1.17;;;18.00;71.50;;;;;;5052769;28;20455;-88
2023/11/11 03:07:43;;;;;;;1.20;1.10;;;18.00;71.50;;;;;;5052821;28;20438;-88
2023/11/11 03:10:12;;;;;;;1.47;1.30;;;18.00;71.50;;;;;;5052872;28;20436;-92
2023/11/11 03:12:39;;;;;;;1.40;1.30;;;18.00;71.50;;;;;;5052585;28;20537;-88
2023/11/11 03:15:08;;;;;;;1.23;1.10;;;18.00;71.50;;;;;;5052788;28;20471;-88
2023/11/11 03:17:36;;;;;;;1.30;1.20;;;18.00;71.50;;;;;;5052631;28;20981;-89
2023/11/11 03:20:04;;;;;;;1.17;1.03;;;18.00;71.60;;;;;;5052827;28;20453;-88
2023/11/11 03:22:31;;;;;;;1.43;1.10;;;18.00;71.50;;;;;;5052789;28;20441;-88
2023/11/11 03:24:59;;;;;;;1.20;1.10;;;18.00;71.50;;;;;;5052950;28;20794;-89
2023/11/11 03:27:26;;;;;;;1.40;1.30;;;18.00;71.50;;;;;;5052625;28;21006;-88
2023/11/11 03:29:52;;;;;;;1.50;1.40;;;18.00;71.50;;;;;;5052670;28;20831;-88
2023/11/11 03:32:21;;;;;;;1.30;1.10;;;18.00;71.50;;;;;;5052584;28;20522;-88
2023/11/11 03:34:47;;;;;;;1.13;1.00;;;18.10;71.60;;;;;;5052498;28;20541;-89
2023/11/11 03:37:14;;;;;;;1.20;1.10;;;18.00;71.50;;;;;;5052480;28;20989;-88
2023/11/11 03:39:43;;;;;;;1.43;1.33;;;18.00;71.50;;;;;;5055973;28;20517;-88
2023/11/11 03:42:11;;;;;;;1.30;1.10;;;18.00;71.50;;;;;;5056400;28;20538;-88
2023/11/11 03:44:38;;;;;;;1.43;1.33;;;18.00;71.50;;;;;;5056192;28;20521;-89
2023/11/11 03:47:06;;;;;;;1.17;0.90;;;18.00;71.60;;;;;;5056155;28;20808;-88
2023/11/11 03:49:34;;;;;;;1.60;1.30;;;18.00;71.50;;;;;;5056141;28;20813;-88
2023/11/11 03:52:01;;;;;;;1.47;1.37;;;18.00;71.60;;;;;;5056274;28;20521;-88
2023/11/11 03:54:28;;;;;;;1.30;1.00;;;18.00;71.50;;;;;;5056103;28;20525;-88
2023/11/11 03:56:55;;;;;;;1.20;1.10;;;18.00;71.60;;;;;;5055871;28;20485;-88
2023/11/11 03:59:22;;;;;;;1.30;1.20;;;18.00;71.50;;;;;;5056002;28;20445;-88
2023/11/11 04:01:51;;;;;;;1.20;1.00;;;18.00;71.50;;;;;;5055924;28;20528;-88
2023/11/11 04:04:18;;;;;;;1.20;0.90;;;18.00;71.60;;;;;;5055944;28;20919;-89
2023/11/11 04:06:46;;;;;;;1.10;0.97;;;18.00;71.60;;;;;;5055738;28;20541;-88
2023/11/11 04:09:14;;;;;;;1.50;1.30;;;18.00;71.60;;;;;;5055809;28;20476;-88
2023/11/11 04:11:40;;;;;;;1.57;1.10;;;18.00;71.60;;;;;;5055668;28;20473;-88
2023/11/11 04:14:07;;;;;;;1.10;0.90;;;18.00;71.60;;;;;;5055690;28;20435;-88
2023/11/11 04:16:35;;;;;;;1.50;1.40;;;18.00;71.60;;;;;;5055547;28;20504;-88
2023/11/11 04:19:03;;;;;;;1.87;1.20;;;18.00;71.50;;;;;;5055596;28;20442;-89
2023/11/11 04:21:30;;;;;;;1.83;1.30;;;18.00;71.60;;;;;;5055819;28;20437;-88
2023/11/11 04:23:58;;;;;;;1.20;1.10;;;18.00;71.60;;;;;;5055504;28;20524;-88
2023/11/11 04:26:25;;;;;;;1.20;1.00;;;18.00;71.60;;;;;;5055495;28;20521;-88
2023/11/11 04:28:52;;;;;;;1.20;1.03;;;18.00;72.40;;;;;;5055526;28;20476;-88
2023/11/11 04:31:20;;;;;;;1.10;1.00;;;18.00;71.60;;;;;;5055288;28;20523;-89
2023/11/11 04:33:47;;;;;;;1.23;1.13;;;18.00;71.50;;;;;;5055475;28;20807;-89
2023/11/11 04:36:14;;;;;;;1.30;1.20;;;18.00;71.50;;;;;;5055303;28;20555;-89
2023/11/11 04:38:42;;;;;;;1.10;0.97;;;18.00;71.50;;;;;;5055017;28;21076;-88
2023/11/11 04:41:11;;;;;;;1.30;1.10;;;17.90;71.40;;;;;;5055230;28;20482;-93
2023/11/11 04:43:38;;;;;;;1.40;1.10;;;17.90;71.40;;;;;;5055080;28;20465;-93
2023/11/11 04:46:06;;;;;;;1.47;1.20;;;17.90;71.40;;;;;;5055102;28;21011;-88
2023/11/11 04:48:32;;;;;;;1.10;1.00;;;18.00;71.50;;;;;;5054984;28;20926;-88
2023/11/11 04:50:59;;;;;;;1.30;1.20;;;17.90;71.40;;;;;;5054325;28;20526;-94
2023/11/11 04:53:28;;;;;;;1.20;1.00;;;17.90;71.40;;;;;;5054989;28;20525;-88
2023/11/11 04:55:54;;;;;;;1.30;1.20;;;17.90;71.40;;;;;;5054862;28;20445;-88
2023/11/11 04:58:24;;;;;;;1.47;1.00;;;17.90;71.40;;;;;;5054860;28;20561;-89
2023/11/11 05:00:51;;;;;;;1.20;1.10;;;17.90;72.40;;;;;;5054760;28;20809;-88
2023/11/11 05:03:19;;;;;;;1.97;1.20;;;17.90;71.40;;;;;;5054887;28;20484;-89
2023/11/11 05:05:46;;;;;;;1.30;1.10;;;17.90;71.40;;;;;;5054941;28;20492;-93
2023/11/11 05:08:13;;;;;;;1.37;1.00;;;17.90;71.40;;;;;;5054777;28;20440;-88
2023/11/11 05:10:40;;;;;;;1.17;1.07;;;17.90;71.40;;;;;;5054649;28;20488;-89
2023/11/11 05:13:08;;;;;;;1.40;1.20;;;17.90;71.40;;;;;;5054221;28;20565;-89
2023/11/11 05:15:42;;;;;;;1.90;1.30;;;17.90;71.40;;;;;;5054597;28;20523;-88
2023/11/11 05:18:10;;;;;;;1.13;1.00;;;17.90;71.40;;;;;;5054546;28;20482;-88
2023/11/11 05:20:39;;;;;;;1.57;1.47;;;17.90;71.40;;;;;;5054457;28;20437;-89
2023/11/11 05:23:06;;;;;;;1.20;1.00;;;17.90;71.40;;;;;;5054491;28;20952;-88
2023/11/11 05:25:33;;;;;;;1.40;1.10;;;17.90;71.40;;;;;;5054459;28;20435;-90
2023/11/11 05:27:59;;;;;;;1.67;1.00;;;17.90;71.40;;;;;;5054339;28;20434;-93
2023/11/11 05:30:26;;;;;;;1.23;0.90;;;17.90;71.40;;;;;;5054286;28;20516;-88
2023/11/11 05:32:55;;;;;;;1.30;1.20;;;17.90;71.40;;;;;;5054304;28;20432;-88
2023/11/11 05:35:21;;;;;;;1.13;0.97;;;17.90;71.40;;;;;;5054042;28;20915;-88
2023/11/11 05:37:48;;;;;;;1.13;0.90;;;17.90;71.40;;;;;;5054032;28;20577;-88
2023/11/11 05:40:18;;;;;;;1.13;0.97;;;17.90;71.40;;;;;;5054070;28;20528;-92
2023/11/11 05:42:47;;;;;;;1.40;1.10;;;17.90;71.40;;;;;;5053960;28;20576;-90
2023/11/11 05:45:16;;;;;;;1.50;1.20;;;17.90;71.40;;;;;;5053938;28;20450;-88
2023/11/11 05:47:43;;;;;;;1.10;1.00;;;17.90;71.40;;;;;;5054003;28;20439;-88
2023/11/11 05:50:12;;;;;;;1.40;1.10;;;17.90;71.40;;;;;;5053905;28;20436;-88
2023/11/11 05:52:39;;;;;;;1.10;0.87;;;17.90;71.40;;;;;;5054119;28;20443;-88
2023/11/11 05:55:08;;;;;;;1.13;1.00;;;17.90;71.40;;;;;;5053849;28;20438;-88
2023/11/11 05:57:35;;;;;;;1.30;1.10;;;17.90;71.40;;;;;;5053594;28;20831;-88
2023/11/11 06:00:03;;;;;;;1.23;0.90;;;17.90;71.40;;;;;;5054020;28;21004;-88
2023/11/11 06:02:30;;;;;;;1.30;1.20;;;17.90;71.40;;;;;;5053532;28;20489;-88
2023/11/11 06:04:57;;;;;;;1.23;1.03;;;17.90;71.40;;;;;;5053767;28;21053;-88
2023/11/11 06:07:25;;;;;;;1.63;1.10;;;17.90;71.40;;;;;;5053494;28;20442;-88
2023/11/11 06:09:53;;;;;;;1.10;0.87;;;17.90;71.40;;;;;;5053505;28;20947;-88
2023/11/11 06:12:20;;;;;;;1.57;0.97;;;17.90;71.40;;;;;;5053530;28;20497;-88
2023/11/11 06:14:47;;;;;;;1.43;1.00;;;17.90;71.40;;;;;;5053513;28;20483;-88
2023/11/11 06:17:14;;;;;;;1.17;0.90;;;17.90;71.40;;;;;;5053475;28;20992;-88
2023/11/11 06:19:40;;;;;;;1.40;1.10;;;17.90;71.40;;;;;;5053343;28;20521;-88
2023/11/11 06:22:07;;;;;;;1.87;1.23;;;17.90;71.40;;;;;;5053318;28;20831;-88
2023/11/11 06:24:35;;;;;;;1.00;0.90;;;17.90;71.40;;;;;;5053383;28;20531;-88
2023/11/11 06:27:02;;;;;;;1.17;1.00;;;17.90;71.40;;;;;;5053411;28;20536;-89
2023/11/11 06:29:29;;;;;;;1.20;1.00;;;17.80;71.30;;;;;;5053318;28;20525;-88
2023/11/11 06:31:56;;;;;;;1.40;0.90;;;17.90;71.40;;;;;;5053296;28;20438;-88
2023/11/11 06:34:23;;;;;;;1.10;0.90;;;17.90;71.40;;;;;;5053079;28;20447;-88
2023/11/11 06:36:50;;;;;;;1.20;0.90;;;17.90;71.40;;;;;;5053134;28;20529;-88
2023/11/11 06:39:17;;;;;;;1.50;1.10;;;17.80;71.20;;;;;;5053035;28;20589;-88
2023/11/11 06:41:45;;;;;;;1.13;0.90;;;17.80;71.30;;;;;;5053279;28;20533;-88
2023/11/11 06:44:12;;;;;;;1.50;0.90;;;17.90;71.40;;;;;;5053161;28;20506;-92
2023/11/11 06:46:39;;;;;;;1.20;0.90;;;17.80;71.20;;;;;;5053176;28;20435;-88
2023/11/11 06:49:06;;;;;;;1.70;1.20;;;17.80;72.10;;;;;;5053223;28;20467;-88
2023/11/11 06:51:31;;;;;;;1.20;0.93;;;17.80;71.30;;;;;;5053054;28;20534;-89
2023/11/11 06:53:58;;;;;;;1.10;0.83;;;17.90;71.40;;;;;;5052997;28;20529;-88
2023/11/11 06:56:25;;;;;;;1.30;1.10;;;18.00;71.50;;;;;;5053005;28;21003;-88
2023/11/11 06:58:53;;;;;;;1.00;0.70;;;17.80;71.20;;;;;;5052867;28;20478;-88
2023/11/11 07:01:23;;;;;;;1.20;1.07;;;17.80;71.30;;;;;;5052989;28;20535;-89
2023/11/11 07:03:50;;;;;;;1.90;1.37;;;17.80;71.20;;;;;;5052903;28;20439;-88
2023/11/11 07:06:22;;;;;;;1.10;0.90;;;17.80;71.20;;;;;;5052827;28;20464;-88
2023/11/11 07:08:50;;;;;;;1.27;1.00;;;17.80;71.20;;;;;;5052939;28;20500;-88
2023/11/11 07:11:17;;;;;;;1.30;0.80;;;17.80;71.20;;;;;;5052627;28;21003;-88
2023/11/11 07:13:44;;;;;;;1.70;0.90;;;17.80;71.20;;;;;;5055272;28;20943;-89
2023/11/11 07:16:16;;;;;;;1.20;0.80;;;17.80;71.20;;;;;;5056767;28;20439;-88
2023/11/11 07:18:43;;;;;;;1.07;0.70;;;17.80;71.20;;;;;;5056711;28;20487;-88
2023/11/11 07:21:18;;;;;;;1.20;0.80;;;17.80;71.30;;;;;;5056774;28;20476;-89
2023/11/11 07:23:46;;;;;;;1.83;1.00;;;17.90;71.40;;;;;;5056728;28;20470;-88
2023/11/11 07:26:15;;;;;;;1.00;0.70;;;17.80;71.20;;;;;;5056730;28;20448;-88
2023/11/11 07:28:42;;;;;;;1.43;0.90;;;17.80;71.20;;;;;;5056558;28;20438;-88
2023/11/11 07:31:09;;;;;;;1.20;1.00;;;17.80;71.20;;;;;;5056620;28;20448;-88
2023/11/11 07:33:38;;;;;;;1.10;0.83;;;17.80;71.20;;;;;;5056605;28;20433;-89
2023/11/11 07:36:05;;;;;;;1.00;0.80;;;17.80;71.10;;;;;;5056401;28;20464;-93
2023/11/11 07:38:32;;;;;;;1.00;0.77;;;17.80;71.20;;;;;;5056209;28;20480;-88
2023/11/11 07:40:59;;;;;;;1.20;0.90;;;17.80;72.00;;;;;;5056433;28;20469;-88
2023/11/11 07:43:26;;;;;;;1.17;0.80;;;17.80;71.20;;;;;;5056299;28;20434;-88
2023/11/11 07:45:52;;;;;;;1.17;0.83;;;17.80;71.20;;;;;;5056351;28;21006;-88
2023/11/11 07:48:19;;;;;;;1.53;0.80;;;17.80;71.20;;;;;;5056384;28;20439;-88
2023/11/11 07:50:48;;;;;;;0.97;0.70;;;17.80;71.20;;;;;;5056133;28;21011;-89
2023/11/11 07:53:17;;;;;;;1.43;0.80;;;17.80;71.20;;;;;;5056180;28;20473;-89
2023/11/11 07:55:44;;;;;;;1.13;0.90;;;17.80;71.20;;;;;;5056009;28;20443;-88
2023/11/11 07:58:12;;;;;;;1.20;0.93;;;17.80;71.10;;;;;;5056053;28;20995;-88
2023/11/11 08:00:39;;;;;;;1.07;0.80;;;17.80;71.10;;;;;;5056084;28;20444;-88
2023/11/11 08:03:07;;;;;;;1.00;0.80;;;17.80;71.20;;;;;;5055868;28;20945;-88
2023/11/11 08:05:33;;;;;;;1.10;0.90;;;17.80;71.20;;;;;;5056005;28;20451;-89
2023/11/11 08:08:02;;;;;;;1.50;1.00;;;17.80;71.20;;;;;;5055845;28;20865;-88
2023/11/11 08:10:29;;;;;;;1.20;1.00;;;17.80;71.30;;;;;;5055850;28;20541;-88
2023/11/11 08:12:56;;;;;;;1.13;1.00;;;17.80;71.20;;;;;;5055826;28;20817;-88
2023/11/11 08:15:23;;;;;;;1.20;0.90;;;17.80;71.20;;;;;;5056010;28;20492;-88
2023/11/11 08:17:50;;;;;;;1.10;0.80;;;17.80;71.20;;;;;;5055684;28;20514;-89
2023/11/11 08:20:18;;;;;;;1.10;0.77;;;17.80;71.20;;;;;;5055657;28;20442;-88
2023/11/11 08:22:46;;;;;;;1.10;0.90;;;17.80;71.20;;;;;;5055494;28;20468;-88
2023/11/11 08:25:14;;;;;;;1.63;1.03;;;17.80;71.20;;;;;;5055457;28;20437;-88
2023/11/11 08:27:41;;;;;;;1.10;1.00;;;17.80;71.10;;;;;;5055723;28;20499;-88
2023/11/11 08:30:12;;;;;;;1.30;1.00;;;17.90;71.40;;;;;;5055538;28;20522;-89
2023/11/11 08:32:39;;;;;;;1.13;0.90;;;17.90;71.20;;;;;;5055592;28;20437;-88
2023/11/11 08:35:08;;;;;;;1.03;0.87;;;17.80;71.20;;;;;;5055231;28;20801;-88
2023/11/11 08:37:35;;;;;;;1.30;0.90;;;17.80;71.20;;;;;;5055268;28;20469;-88
2023/11/11 08:40:06;;;;;;;1.30;1.00;;;17.90;71.30;;;;;;5055110;28;21022;-88
2023/11/11 08:42:35;;;;;;;1.10;0.90;;;17.90;71.30;;;;;;5055441;28;20435;-91
2023/11/11 08:45:02;;;;;;;1.10;0.83;;;17.90;71.30;;;;;;5055324;28;20448;-88
2023/11/11 08:47:29;;;;;;;3.33;0.97;;;17.90;71.30;;;;;;5055152;28;20437;-88
2023/11/11 08:49:56;;;;;;;1.20;0.90;;;17.90;71.20;;;;;;5055291;28;20448;-88
2023/11/11 08:52:23;;;;;;;1.33;1.10;;;17.90;71.20;;;;;;5055003;28;20450;-89
2023/11/11 08:54:51;;;;;;;1.77;1.00;;;17.90;71.30;;;;;;5054994;28;20461;-89
2023/11/11 08:57:19;;;;;;;1.23;0.90;;;17.90;71.30;;;;;;5055215;28;20435;-88
2023/11/11 08:59:48;;;;;;;2.50;1.07;;;17.90;71.20;;;;;;5054675;28;20564;-88
2023/11/11 09:02:17;;;;;;;2.40;1.13;;;17.90;71.30;;;;;;5054963;28;20445;-88
2023/11/11 09:04:44;;;;;;;1.60;1.00;;;17.90;71.30;;;;;;5054738;28;20986;-88
2023/11/11 09:07:11;;;;;;;1.43;1.00;;;17.90;71.20;;;;;;5054838;28;20533;-88
2023/11/11 09:09:38;;;;;;;1.40;1.10;;;17.90;71.20;;;;;;5054787;28;20448;-88
2023/11/11 09:12:06;;;;;;;1.10;0.90;;;17.90;71.20;;;;;;5054445;28;20585;-88
2023/11/11 09:14:34;;;;;;;1.50;1.10;;;17.90;71.20;;;;;;5054485;28;20438;-88
2023/11/11 09:17:03;;;;;;;1.70;1.40;;;17.90;71.20;;;;;;5054429;28;20476;-88
2023/11/11 09:19:31;;;;;;;1.07;0.90;;;17.90;71.20;;;;;;5054357;28;20989;-89
2023/11/11 09:21:58;;;;;;;1.60;0.93;;;17.90;71.20;;;;;;5054528;28;20454;-88
2023/11/11 09:24:25;;;;;;;1.87;1.00;;;17.90;71.20;;;;;;5054466;28;20445;-88
2023/11/11 09:26:52;;;;;;;1.10;1.00;;;17.90;71.20;;;;;;5054426;28;20465;-88
2023/11/11 09:29:19;;;;;;;1.40;0.93;;;17.90;71.10;;;;;;5054191;28;20443;-89
2023/11/11 09:31:46;;;;;;;1.40;1.10;;;17.90;71.10;;;;;;5054183;28;20442;-88
2023/11/11 09:34:15;;;;;;;1.80;1.10;;;18.00;71.20;;;;;;5054220;28;20442;-88
2023/11/11 09:36:44;;;;;;;1.60;1.00;;;17.90;71.10;;;;;;5053630;28;20443;-88
2023/11/11 09:39:13;;;;;;;1.10;0.90;;;17.90;71.10;;;;;;5053976;28;20581;-89
2023/11/11 09:41:40;;;;;;;1.10;0.80;;;18.00;71.20;;;;;;5054340;28;20443;-88
2023/11/11 09:44:07;;;;;;;1.20;1.00;;;18.00;71.20;;;;;;5054306;28;20473;-88
2023/11/11 09:46:40;;;;;;;1.30;1.10;;;18.00;71.10;;;;;;5053876;28;20488;-88
2023/11/11 09:49:09;;;;;;;1.80;1.10;;;17.90;71.10;;;;;;5054084;28;21014;-88
2023/11/11 09:51:41;;;;;;;1.40;1.30;;;18.00;71.20;;;;;;5053850;28;20800;-88
2023/11/11 09:54:09;;;;;;;1.27;1.17;;;18.00;70.50;;;;;;5054035;28;20496;-89
2023/11/11 09:56:37;;;;;;;1.10;1.00;;;18.00;71.20;;;;;;5053723;28;20444;-88
2023/11/11 09:59:05;;;;;;;1.13;1.03;;;18.00;71.10;;;;;;5053654;28;20490;-88
2023/11/11 10:01:33;;;;;;;1.00;0.80;;;18.00;72.00;;;;;;5053730;28;20441;-88
2023/11/11 10:04:00;;;;;;;1.40;1.00;;;18.00;71.10;;;;;;5053825;28;20514;-88
2023/11/11 10:06:27;;;;;;;1.10;0.90;;;18.00;71.10;;;;;;5053528;28;20464;-88
2023/11/11 10:08:56;;;;;;;1.47;1.20;;;18.00;71.10;;;;;;5053684;28;21043;-88
2023/11/11 10:11:23;;;;;;;1.20;1.00;;;18.00;71.10;;;;;;5053241;28;20561;-88
2023/11/11 10:13:53;;;;;;;1.20;0.93;;;18.00;71.10;;;;;;5053014;28;20447;-91
2023/11/11 10:16:21;;;;;;;2.63;1.17;;;18.00;71.10;;;;;;5052632;28;20428;-89
2023/11/11 10:18:50;;;;;;;1.10;0.90;;;18.00;71.10;;;;;;5052521;28;20502;-88
2023/11/11 10:21:20;;;;;;;1.20;1.03;;;18.00;71.10;;;;;;5052605;28;20439;-88
2023/11/11 10:23:47;;;;;;;1.60;1.20;;;17.90;71.10;;;;;;5052637;28;20446;-88
2023/11/11 10:26:16;;;;;;;1.47;1.30;;;18.00;71.10;;;;;;5052648;28;20440;-88
2023/11/11 10:28:48;;;;;;;1.13;1.00;;;18.00;71.10;;;;;;5052657;28;20444;-88
2023/11/11 10:31:15;;;;;;;1.10;1.00;;;18.00;71.10;;;;;;5052617;28;20441;-88
2023/11/11 10:33:42;;;;;;;1.83;1.13;;;18.00;71.10;;;;;;5052280;28;20446;-88
2023/11/11 10:36:10;;;;;;;1.87;1.10;;;18.00;71.10;;;;;;5052270;28;20868;-88
2023/11/11 10:38:39;;;;;;;1.33;1.10;;;18.00;71.10;;;;;;5052086;28;20543;-89
2023/11/11 10:41:06;;;;;;;1.67;1.17;;;18.00;71.10;;;;;;5052540;28;20473;-90
2023/11/11 10:43:35;;;;;;;1.73;1.00;;;18.00;71.10;;;;;;5052308;28;20429;-88
2023/11/11 10:46:03;;;;;;;3.90;1.37;;;18.00;71.10;;;;;;5052326;28;20934;-89
2023/11/11 10:48:30;;;;;;;1.27;1.17;;;18.00;71.00;;;;;;5051060;28;20446;-88
2023/11/11 10:50:57;;;;;;;1.30;1.20;;;18.00;71.00;;;;;;5052269;28;20440;-89
2023/11/11 10:53:27;;;;;;;1.00;0.80;;;18.00;71.00;;;;;;5052174;28;20621;-88
2023/11/11 10:55:55;;;;;;;1.20;1.10;;;18.00;71.00;;;;;;5052200;28;20443;-88
2023/11/11 10:58:22;;;;;;;1.50;1.20;;;18.10;71.10;;;;;;5052014;28;20438;-90
2023/11/11 11:00:51;;;;;;;1.67;1.10;;;18.00;71.00;;;;;;5052079;28;20443;-88
2023/11/11 11:03:20;;;;;;;1.10;0.90;;;18.00;71.00;;;;;;5052158;28;20482;-88
2023/11/11 11:05:55;;;;;;;1.43;1.13;;;18.00;71.00;;;;;;5052043;28;20902;-88
2023/11/11 11:08:31;;;;;;;1.30;1.10;;;18.00;71.00;;;;;;5052103;28;20575;-88
2023/11/11 11:11:12;;;;;;;1.03;0.80;;;18.00;71.00;;;;;;5012819;28;1124040;-88
2023/11/11 11:13:40;;;;;;;1.20;1.10;;;18.00;71.00;;;;;;5052819;28;20438;-88
2023/11/11 11:16:16;;;;;;;1.77;1.10;;;18.00;71.00;;;;;;5052796;28;20443;-89
2023/11/11 11:18:43;;;;;;;1.10;1.00;;;18.00;71.00;;;;;;5052582;28;20445;-89
2023/11/11 11:21:11;;;;;;;1.50;1.10;;;18.00;71.00;;;;;;5052709;28;20574;-88
2023/11/11 11:23:37;;;;;;;1.43;1.10;;;18.10;71.00;;;;;;5052892;28;20443;-89
2023/11/11 11:26:04;;;;;;;1.33;1.10;;;18.10;70.90;;;;;;5052649;28;20530;-88
2023/11/11 11:28:31;;;;;;;1.93;1.50;;;18.10;70.90;;;;;;5052706;28;20509;-89
2023/11/11 11:31:02;;;;;;;1.57;1.20;;;18.10;70.80;;;;;;5052774;28;20446;-88
2023/11/11 11:33:32;;;;;;;1.93;1.13;;;18.10;70.80;;;;;;5052647;28;21003;-88
2023/11/11 11:36:01;;;;;;;1.30;1.20;;;18.20;70.80;;;;;;5052408;28;20462;-88
2023/11/11 11:38:31;;;;;;;1.23;1.10;;;18.20;70.80;;;;;;5052437;28;20436;-89
2023/11/11 11:41:06;;;;;;;1.50;1.30;;;18.20;70.80;;;;;;5052521;28;20482;-88
2023/11/11 11:43:34;;;;;;;1.60;1.00;;;18.10;70.70;;;;;;5052536;28;20436;-88
2023/11/11 11:46:02;;;;;;;1.10;1.00;;;18.20;70.70;;;;;;5052622;28;20467;-89
2023/11/11 11:48:33;;;;;;;3.10;1.07;;;18.20;70.70;;;;;;5052460;28;20526;-88
2023/11/11 11:51:18;;;;;;;1.53;1.20;;;18.20;71.50;;;;;;5052785;28;20471;-89
2023/11/11 11:53:48;;;;;;;1.30;1.20;;;18.20;70.60;;;;;;5052477;28;20444;-89
2023/11/11 11:56:27;;;;;;;1.20;1.10;;;18.20;70.60;;;;;;5052353;28;20533;-88
2023/11/11 11:58:55;;;;;;;1.63;1.27;;;18.20;70.60;;;;;;5053124;28;21008;-88
2023/11/11 12:01:23;;;;;;;1.50;1.40;;;18.20;70.60;;;;;;5055924;28;20475;-88
2023/11/11 12:03:52;;;;;;;2.30;1.00;;;18.20;70.60;;;;;;5055943;28;20447;-88
2023/11/11 12:06:20;;;;;;;1.90;1.10;;;18.20;70.70;;;;;;5055791;28;20541;-89
2023/11/11 12:08:49;;;;;;;1.30;1.20;;;18.20;70.60;;;;;;5055774;28;21003;-89
2023/11/11 12:11:23;;;;;;;1.30;1.20;;;18.20;70.60;;;;;;5055516;28;20569;-88
2023/11/11 12:13:50;;;;;;;1.70;1.50;;;18.20;70.50;;;;;;5055881;28;20476;-89
2023/11/11 12:16:17;;;;;;;1.30;1.10;;;18.20;70.60;;;;;;5055838;28;20434;-88
2023/11/11 12:18:46;;;;;;;1.10;1.00;;;18.20;70.60;;;;;;5055665;28;20439;-89
2023/11/11 12:21:18;;;;;;;2.93;1.30;;;18.20;70.70;;;;;;5055537;28;20497;-88
2023/11/11 12:23:46;;;;;;;1.23;1.00;;;18.20;70.70;;;;;;5055576;28;20436;-88
2023/11/11 12:26:14;;;;;;;1.70;1.40;;;18.20;70.70;;;;;;5055374;28;20955;-88
2023/11/11 12:28:41;;;;;;;1.77;1.30;;;18.20;70.70;;;;;;5055611;28;20439;-88
2023/11/11 12:31:09;;;;;;;1.50;1.10;;;18.20;70.70;;;;;;5055496;28;20440;-88
2023/11/11 12:33:36;;;;;;;1.30;1.20;;;18.20;70.70;;;;;;5055391;28;20481;-88
2023/11/11 12:36:03;;;;;;;1.20;1.00;;;18.20;70.70;;;;;;5055263;28;20464;-88
2023/11/11 12:38:32;;;;;;;1.20;0.97;;;18.20;70.80;;;;;;5055088;28;20459;-88
2023/11/11 12:41:00;;;;;;;1.40;1.20;;;18.20;70.70;;;;;;5055145;28;20523;-88
2023/11/11 12:43:27;;;;;;;1.60;1.13;;;18.20;70.70;;;;;;5055127;28;20442;-88
2023/11/11 12:45:55;;;;;;;1.20;1.00;;;18.20;70.70;;;;;;5055306;28;20542;-88
2023/11/11 12:48:23;;;;;;;1.23;1.13;;;18.20;70.80;;;;;;5055068;28;20506;-88
2023/11/11 12:50:52;;;;;;;1.10;0.93;;;18.20;70.80;;;;;;5055123;28;20441;-87